createdAt,value
2018-02-14T00:01:48.416Z,1.56
2018-02-14T00:04:15.482Z,1.64
2018-02-14T00:06:42.522Z,1.72
2018-02-14T00:09:09.544Z,1.69
2018-02-14T00:11:36.562Z,1.70
2018-02-14T00:14:03.628Z,1.66
2018-02-14T00:16:30.646Z,1.63
2018-02-14T00:18:57.706Z,1.68
2018-02-14T00:21:24.768Z,1.61
2018-02-14T00:23:51.823Z,1.70
2018-02-14T00:26:19.290Z,1.72
2018-02-14T00:28:46.312Z,1.74
2018-02-14T00:31:13.387Z,1.59
2018-02-14T00:33:40.455Z,1.48
2018-02-14T00:36:07.497Z,1.34
2018-02-14T00:38:34.566Z,1.35
2018-02-14T00:41:01.606Z,1.37
2018-02-14T00:43:28.664Z,1.39
2018-02-14T00:45:55.724Z,1.54
2018-02-14T00:48:22.898Z,1.53
2018-02-14T00:50:49.968Z,1.51
2018-02-14T00:53:17.005Z,1.42
2018-02-14T00:55:44.163Z,1.32
2018-02-14T00:58:11.200Z,1.33
2018-02-14T01:00:38.224Z,1.42
2018-02-14T01:03:05.236Z,1.47
2018-02-14T01:05:32.265Z,1.46
2018-02-14T01:07:59.332Z,1.55
2018-02-14T01:10:26.360Z,1.60
2018-02-14T01:12:53.447Z,1.63
2018-02-14T01:15:20.466Z,1.62
2018-02-14T01:17:47.514Z,1.59
2018-02-14T01:20:14.535Z,1.64
2018-02-14T01:22:41.621Z,1.55
2018-02-14T01:25:08.704Z,1.45
2018-02-14T01:27:35.665Z,1.44
2018-02-14T01:30:02.820Z,1.42
2018-02-14T01:32:29.916Z,1.35
2018-02-14T01:34:57.002Z,1.40
2018-02-14T01:37:24.122Z,1.45
2018-02-14T01:39:51.210Z,1.48
2018-02-14T01:42:18.257Z,1.44
2018-02-14T01:44:45.283Z,1.41
2018-02-14T01:47:12.317Z,1.47
2018-02-14T01:49:39.372Z,1.57
2018-02-14T01:52:06.376Z,1.61
2018-02-14T01:54:33.412Z,1.71
2018-02-14T01:57:00.463Z,1.84
2018-02-14T01:59:27.482Z,1.84
2018-02-14T02:01:54.513Z,1.80
2018-02-14T02:04:21.612Z,1.75
2018-02-14T02:06:48.671Z,1.84
2018-02-14T02:09:15.686Z,1.88
2018-02-14T02:11:42.747Z,1.95
2018-02-14T02:14:09.789Z,2.00
2018-02-14T02:16:36.851Z,2.03
2018-02-14T02:19:03.868Z,2.01
2018-02-14T02:21:30.950Z,2.03
2018-02-14T02:23:58.037Z,2.11
2018-02-14T02:26:25.102Z,2.17
2018-02-14T02:28:52.128Z,2.23
2018-02-14T02:31:19.159Z,2.21
2018-02-14T02:33:46.255Z,2.22
2018-02-14T02:36:13.272Z,2.21
2018-02-14T02:38:40.319Z,2.29
2018-02-14T02:41:07.420Z,2.28
2018-02-14T02:43:34.474Z,2.30
2018-02-14T02:46:01.489Z,2.19
2018-02-14T02:48:28.437Z,2.14
2018-02-14T02:50:55.448Z,2.12
2018-02-14T02:53:22.450Z,2.25
2018-02-14T02:55:49.510Z,2.27
2018-02-14T02:58:16.641Z,2.24
2018-02-14T03:03:16.963Z,2.30
2018-02-14T03:05:44.006Z,2.28
2018-02-14T03:08:11.092Z,2.13
2018-02-14T03:10:38.137Z,2.16
2018-02-14T03:13:05.193Z,2.22
2018-02-14T03:15:32.204Z,2.21
2018-02-14T03:17:59.267Z,2.11
2018-02-14T03:20:26.511Z,2.06
2018-02-14T03:22:53.500Z,2.03
2018-02-14T03:25:20.749Z,2.05
2018-02-14T03:27:47.768Z,2.07
2018-02-14T03:30:14.803Z,2.05
2018-02-14T03:32:41.864Z,2.05
2018-02-14T03:35:08.926Z,2.14
2018-02-14T03:37:35.998Z,2.15
2018-02-14T03:40:03.012Z,2.09
2018-02-14T03:42:29.994Z,2.07
2018-02-14T03:44:56.989Z,1.95
2018-02-14T03:47:24.023Z,2.05
2018-02-14T03:49:51.085Z,2.15
2018-02-14T03:52:18.241Z,2.07
2018-02-14T03:54:45.238Z,2.10
2018-02-14T03:57:12.310Z,2.13
2018-02-14T03:59:39.388Z,2.14
2018-02-14T04:02:06.411Z,2.17
2018-02-14T04:06:59.745Z,2.04
2018-02-14T04:09:26.756Z,1.94
2018-02-14T04:11:53.755Z,1.95
2018-02-14T04:14:20.766Z,1.93
2018-02-14T04:16:47.784Z,1.95
2018-02-14T04:19:14.831Z,2.08
2018-02-14T04:21:41.891Z,2.15
2018-02-14T04:24:08.961Z,2.15
2018-02-14T04:26:36.025Z,2.20
2018-02-14T04:29:03.083Z,2.22
2018-02-14T04:31:30.090Z,2.29
2018-02-14T04:33:57.150Z,2.16
2018-02-14T04:36:24.299Z,2.13
2018-02-14T04:38:51.473Z,2.19
2018-02-14T04:41:18.505Z,2.21
2018-02-14T04:46:11.885Z,2.08
2018-02-14T04:48:38.928Z,2.25
2018-02-14T04:51:06.042Z,2.35
2018-02-14T04:53:33.135Z,2.38
2018-02-14T04:56:00.174Z,2.26
2018-02-14T04:58:27.267Z,2.24
2018-02-14T05:00:54.296Z,2.18
2018-02-14T05:03:21.303Z,2.14
2018-02-14T05:05:48.339Z,2.16
2018-02-14T05:08:15.363Z,2.14
2018-02-14T05:10:42.382Z,2.09
2018-02-14T05:13:09.451Z,2.17
2018-02-14T05:15:36.480Z,2.26
2018-02-14T05:18:03.523Z,2.36
2018-02-14T05:20:30.577Z,2.26
2018-02-14T05:22:57.583Z,2.21
2018-02-14T05:25:24.628Z,2.22
2018-02-14T05:27:51.646Z,2.14
2018-02-14T05:30:18.685Z,2.10
2018-02-14T05:32:45.695Z,2.12
2018-02-14T05:35:12.725Z,2.06
2018-02-14T05:37:39.838Z,2.04
2018-02-14T05:40:06.914Z,2.08
2018-02-14T05:42:33.918Z,2.07
2018-02-14T05:45:00.967Z,2.10
2018-02-14T05:47:27.990Z,2.09
2018-02-14T05:49:55.047Z,2.09
2018-02-14T05:52:22.116Z,2.13
2018-02-14T05:54:49.164Z,2.27
2018-02-14T05:57:16.224Z,2.38
2018-02-14T05:59:43.231Z,2.46
2018-02-14T06:02:10.185Z,2.50
2018-02-14T06:04:37.280Z,2.71
2018-02-14T06:07:04.692Z,2.63
2018-02-14T06:09:31.747Z,2.55
2018-02-14T06:11:58.775Z,2.48
2018-02-14T06:14:25.822Z,2.49
2018-02-14T06:16:52.846Z,2.31
2018-02-14T06:19:19.947Z,2.19
2018-02-14T06:21:46.967Z,2.31
2018-02-14T06:24:14.105Z,2.40
2018-02-14T06:26:41.166Z,2.48
2018-02-14T06:29:09.160Z,2.42
2018-02-14T06:31:36.174Z,2.49
2018-02-14T06:34:03.129Z,2.50
2018-02-14T06:36:30.134Z,2.52
2018-02-14T06:38:57.145Z,2.51
2018-02-14T06:41:24.252Z,2.51
2018-02-14T06:43:51.320Z,2.52
2018-02-14T06:46:18.405Z,2.52
2018-02-14T06:48:45.449Z,2.59
2018-02-14T06:51:12.472Z,2.59
2018-02-14T06:53:39.544Z,2.59
2018-02-14T06:56:06.649Z,2.66
2018-02-14T06:58:33.734Z,2.65
2018-02-14T07:01:00.765Z,2.66
2018-02-14T07:03:27.815Z,2.69
2018-02-14T07:05:54.821Z,2.57
2018-02-14T07:08:21.795Z,2.53
2018-02-14T07:10:48.864Z,2.59
2018-02-14T07:13:15.984Z,2.58
2018-02-14T07:15:43.036Z,2.57
2018-02-14T07:18:10.079Z,2.49
2018-02-14T07:20:37.115Z,2.64
2018-02-14T07:23:04.341Z,2.71
2018-02-14T07:25:31.349Z,2.71
2018-02-14T07:27:58.353Z,2.71
2018-02-14T07:30:25.365Z,2.72
2018-02-14T07:32:52.394Z,2.81
2018-02-14T07:35:19.447Z,2.88
2018-02-14T07:37:46.466Z,2.92
2018-02-14T07:40:13.502Z,2.89
2018-02-14T07:42:40.545Z,2.90
2018-02-14T07:45:07.607Z,2.92
2018-02-14T07:47:34.669Z,2.83
2018-02-14T07:50:01.774Z,2.75
2018-02-14T07:52:28.720Z,2.74
2018-02-14T07:54:55.786Z,2.78
2018-02-14T07:57:22.835Z,2.85
2018-02-14T07:59:49.911Z,2.86
2018-02-14T08:02:16.927Z,2.81
2018-02-14T08:04:43.963Z,2.85
2018-02-14T08:07:10.968Z,2.97
2018-02-14T08:09:37.996Z,2.92
2018-02-14T08:12:05.050Z,2.84
2018-02-14T08:14:32.108Z,2.88
2018-02-14T08:16:59.143Z,2.92
2018-02-14T08:19:26.471Z,2.93
2018-02-14T08:21:53.460Z,2.95
2018-02-14T08:24:20.529Z,3.02
2018-02-14T08:26:47.573Z,3.09
2018-02-14T08:29:14.668Z,3.15
2018-02-14T08:31:41.602Z,3.25
2018-02-14T08:34:08.664Z,3.26
2018-02-14T08:36:35.680Z,3.24
2018-02-14T08:39:02.753Z,3.47
2018-02-14T08:41:29.773Z,3.45
2018-02-14T08:43:56.843Z,3.34
2018-02-14T08:46:23.850Z,3.29
2018-02-14T08:48:50.904Z,3.31
2018-02-14T08:51:17.940Z,3.53
2018-02-14T08:53:44.922Z,3.51
2018-02-14T08:56:12.036Z,3.36
2018-02-14T08:58:39.139Z,3.49
2018-02-14T09:01:06.255Z,3.68
2018-02-14T09:03:33.331Z,3.62
2018-02-14T09:06:00.354Z,3.56
2018-02-14T09:08:27.426Z,3.37
2018-02-14T09:10:54.503Z,3.25
2018-02-14T09:13:21.563Z,3.32
2018-02-14T09:15:48.495Z,3.40
2018-02-14T09:18:15.525Z,3.40
2018-02-14T09:20:42.697Z,3.37
2018-02-14T09:23:09.700Z,3.27
2018-02-14T09:25:36.705Z,3.24
2018-02-14T09:28:03.730Z,3.32
2018-02-14T09:30:30.739Z,3.20
2018-02-14T09:32:57.766Z,3.21
2018-02-14T09:35:24.802Z,3.41
2018-02-14T09:37:52.038Z,3.50
2018-02-14T09:40:19.036Z,3.63
2018-02-14T09:42:46.009Z,3.81
2018-02-14T09:45:13.059Z,3.92
2018-02-14T09:47:40.076Z,3.93
2018-02-14T09:50:07.140Z,3.87
2018-02-14T09:52:34.229Z,4.07
2018-02-14T09:55:01.331Z,4.31
2018-02-14T09:57:28.402Z,4.53
2018-02-14T09:59:55.455Z,4.63
2018-02-14T10:02:22.461Z,4.64
2018-02-14T10:04:49.506Z,4.77
2018-02-14T10:07:16.562Z,4.89
2018-02-14T10:09:43.658Z,4.70
2018-02-14T10:12:10.670Z,4.56
2018-02-14T10:14:37.719Z,4.59
2018-02-14T10:17:04.767Z,4.52
2018-02-14T10:19:31.766Z,4.62
2018-02-14T10:21:58.808Z,4.54
2018-02-14T10:24:25.905Z,4.57
2018-02-14T10:26:52.941Z,4.50
2018-02-14T10:29:19.994Z,4.43
2018-02-14T10:31:47.150Z,4.58
2018-02-14T10:34:14.210Z,4.60
2018-02-14T10:36:41.215Z,4.62
2018-02-14T10:39:08.200Z,4.66
2018-02-14T10:41:35.201Z,4.65
2018-02-14T10:44:02.254Z,4.60
2018-02-14T10:46:29.248Z,4.49
2018-02-14T10:48:56.273Z,4.61
2018-02-14T10:51:23.224Z,4.76
2018-02-14T10:53:50.262Z,4.79
2018-02-14T10:56:17.579Z,4.71
2018-02-14T10:58:44.531Z,4.78
2018-02-14T11:01:17.278Z,4.87
2018-02-14T11:03:44.241Z,4.99
2018-02-14T11:06:13.034Z,4.98
2018-02-14T11:08:40.003Z,5.01
2018-02-14T11:11:07.074Z,5.16
2018-02-14T11:13:34.100Z,5.34
2018-02-14T11:16:01.086Z,5.50
2018-02-14T11:18:28.084Z,5.79
2018-02-14T11:20:55.128Z,6.35
2018-02-14T11:23:22.138Z,6.83
2018-02-14T11:25:49.231Z,7.12
2018-02-14T11:28:16.362Z,7.17
2018-02-14T11:30:43.381Z,7.15
2018-02-14T11:33:10.403Z,6.94
2018-02-14T11:35:37.435Z,6.71
2018-02-14T11:38:04.478Z,6.98
2018-02-14T11:40:31.545Z,7.87
2018-02-14T11:42:58.546Z,7.62
2018-02-14T11:45:25.614Z,6.58
2018-02-14T11:47:52.678Z,6.55
2018-02-14T11:50:19.628Z,6.88
2018-02-14T11:52:46.991Z,7.31
2018-02-14T11:55:14.038Z,7.52
2018-02-14T11:57:41.110Z,8.00
2018-02-14T12:00:09.458Z,9.51
2018-02-14T12:02:36.567Z,10.03
2018-02-14T12:05:03.571Z,9.53
2018-02-14T12:07:30.570Z,8.53
2018-02-14T12:09:57.601Z,7.75
2018-02-14T12:12:24.635Z,7.44
2018-02-14T12:14:51.661Z,7.39
2018-02-14T12:19:51.995Z,7.21
2018-02-14T12:22:19.074Z,7.44
2018-02-14T12:24:46.132Z,7.22
2018-02-14T12:27:13.342Z,7.17
2018-02-14T12:29:40.354Z,6.93
2018-02-14T12:32:07.407Z,7.10
2018-02-14T12:34:34.482Z,7.56
2018-02-14T12:37:01.565Z,11.54
2018-02-14T12:39:28.629Z,11.71
2018-02-14T12:41:55.642Z,12.61
2018-02-14T12:44:22.679Z,16.58
2018-02-14T12:46:49.759Z,16.96
2018-02-14T12:49:16.778Z,16.84
2018-02-14T12:51:43.891Z,18.33
2018-02-14T12:54:10.958Z,18.69
2018-02-14T12:56:38.012Z,15.95
2018-02-14T12:59:05.066Z,16.01
2018-02-14T13:01:32.116Z,17.36
2018-02-14T13:03:59.168Z,16.52
2018-02-14T13:06:26.234Z,17.49
2018-02-14T13:08:53.245Z,17.69
2018-02-14T13:11:20.253Z,17.65
2018-02-14T13:13:47.258Z,15.49
2018-02-14T13:16:14.277Z,15.33
2018-02-14T13:18:41.344Z,16.56
2018-02-14T13:21:08.361Z,17.14
2018-02-14T13:23:35.378Z,18.57
2018-02-14T13:26:02.667Z,19.55
2018-02-14T13:28:29.710Z,19.24
2018-02-14T13:30:56.790Z,19.67
2018-02-14T13:33:23.939Z,16.42
2018-02-14T13:35:51.017Z,16.28
2018-02-14T13:38:17.997Z,16.00
2018-02-14T13:40:45.023Z,17.82
2018-02-14T13:43:12.064Z,17.17
2018-02-14T13:45:39.120Z,16.82
2018-02-14T13:48:06.179Z,15.56
2018-02-14T13:50:33.242Z,14.92
2018-02-14T13:53:00.733Z,15.09
2018-02-14T13:55:27.765Z,16.22
2018-02-14T13:57:54.785Z,17.56
2018-02-14T14:00:21.784Z,16.35
2018-02-14T14:02:48.747Z,15.65
2018-02-14T14:05:15.758Z,14.72
2018-02-14T14:07:42.811Z,14.65
2018-02-14T14:10:09.867Z,14.11
2018-02-14T14:12:36.892Z,13.96
2018-02-14T14:15:03.940Z,14.87
2018-02-14T14:17:30.986Z,15.09
2018-02-14T14:19:58.160Z,14.62
2018-02-14T14:22:25.131Z,16.76
2018-02-14T14:24:52.181Z,17.92
2018-02-14T14:27:19.209Z,18.10
2018-02-14T14:29:46.261Z,17.02
2018-02-14T14:32:13.322Z,16.86
2018-02-14T14:34:40.359Z,17.73
2018-02-14T14:37:07.450Z,17.42
2018-02-14T14:39:34.531Z,18.00
2018-02-14T14:42:01.679Z,18.54
2018-02-14T14:44:28.694Z,17.79
2018-02-14T14:46:55.702Z,15.10
2018-02-14T14:49:22.782Z,13.52
2018-02-14T14:51:49.809Z,15.17
2018-02-14T14:54:16.867Z,16.80
2018-02-14T14:56:44.069Z,18.05
2018-02-14T14:59:11.079Z,17.57
2018-02-14T15:01:38.086Z,17.03
2018-02-14T15:04:05.084Z,16.69
2018-02-14T15:06:32.103Z,16.84
2018-02-14T15:08:59.124Z,18.23
2018-02-14T15:11:26.188Z,17.42
2018-02-14T15:13:53.243Z,17.98
2018-02-14T15:16:20.301Z,17.66
2018-02-14T15:18:47.352Z,17.15
2018-02-14T15:21:14.427Z,17.38
2018-02-14T15:23:41.573Z,18.10
2018-02-14T15:26:08.660Z,19.87
2018-02-14T15:28:35.695Z,21.36
2018-02-14T15:31:02.712Z,22.01
2018-02-14T15:33:29.738Z,22.17
2018-02-14T15:35:56.805Z,20.25
2018-02-14T15:38:23.817Z,18.99
2018-02-14T15:40:50.806Z,18.28
2018-02-14T15:43:17.834Z,16.66
2018-02-14T15:45:44.840Z,15.35
2018-02-14T15:48:11.848Z,14.71
2018-02-14T15:50:38.792Z,13.45
2018-02-14T15:53:05.859Z,12.85
2018-02-14T15:55:32.920Z,12.41
2018-02-14T15:57:59.919Z,11.54
2018-02-14T16:00:26.945Z,11.26
2018-02-14T16:02:53.984Z,10.77
2018-02-14T16:05:20.948Z,10.32
2018-02-14T16:07:47.961Z,10.89
2018-02-14T16:10:14.995Z,12.23
2018-02-14T16:12:42.275Z,13.55
2018-02-14T16:15:09.276Z,13.36
2018-02-14T16:17:36.294Z,12.95
2018-02-14T16:20:03.338Z,11.44
2018-02-14T16:22:30.316Z,10.13
2018-02-14T16:24:57.314Z,9.33
2018-02-14T16:27:24.406Z,8.65
2018-02-14T16:29:51.347Z,8.32
2018-02-14T16:32:18.366Z,7.86
2018-02-14T16:34:45.427Z,7.44
2018-02-14T16:37:12.421Z,7.21
2018-02-14T16:39:39.483Z,7.01
2018-02-14T16:42:06.412Z,6.91
2018-02-14T16:44:33.466Z,6.58
2018-02-14T16:47:00.473Z,6.35
2018-02-14T16:49:27.502Z,6.27
2018-02-14T16:51:54.658Z,6.18
2018-02-14T16:54:21.851Z,6.08
2018-02-14T16:56:48.906Z,5.96
2018-02-14T16:59:15.958Z,5.83
2018-02-14T17:01:42.973Z,5.78
2018-02-14T17:04:10.056Z,5.76
2018-02-14T17:06:37.131Z,5.73
2018-02-14T17:09:04.147Z,5.71
2018-02-14T17:11:31.174Z,5.77
2018-02-14T17:13:58.193Z,5.78
2018-02-14T17:16:25.211Z,5.72
2018-02-14T17:18:52.370Z,5.64
2018-02-14T17:21:19.787Z,5.58
2018-02-14T17:23:46.885Z,5.55
2018-02-14T17:26:13.994Z,5.46
2018-02-14T17:28:40.992Z,5.42
2018-02-14T17:31:08.038Z,5.37
2018-02-14T17:33:35.071Z,5.37
2018-02-14T17:36:02.179Z,5.31
2018-02-14T17:38:29.237Z,5.27
2018-02-14T17:40:57.155Z,5.26
2018-02-14T17:43:24.177Z,5.24
2018-02-14T17:45:51.173Z,5.19
2018-02-14T17:48:18.170Z,5.18
2018-02-14T17:50:45.219Z,5.19
2018-02-14T17:53:12.530Z,5.23
2018-02-14T17:55:39.577Z,5.28
2018-02-14T17:58:06.590Z,5.25
2018-02-14T18:00:33.544Z,5.24
2018-02-14T18:03:00.867Z,5.13
2018-02-14T18:05:27.987Z,5.05
2018-02-14T18:07:55.064Z,5.01
2018-02-14T18:10:22.143Z,4.98
2018-02-14T18:12:49.234Z,4.94
2018-02-14T18:15:16.282Z,4.95
2018-02-14T18:17:43.329Z,4.96
2018-02-14T18:20:10.413Z,4.95
2018-02-14T18:22:37.494Z,4.90
2018-02-14T18:25:04.892Z,4.88
2018-02-14T18:30:05.399Z,4.88
2018-02-14T18:32:32.509Z,4.83
2018-02-14T18:34:59.537Z,4.85
2018-02-14T18:37:26.519Z,4.84
2018-02-14T18:39:53.501Z,4.77
2018-02-14T18:42:20.513Z,4.74
2018-02-14T18:44:47.577Z,4.69
2018-02-14T18:47:14.584Z,4.69
2018-02-14T18:49:41.595Z,4.67
2018-02-14T18:52:08.684Z,4.58
2018-02-14T18:54:35.881Z,4.51
2018-02-14T18:57:02.954Z,4.44
2018-02-14T18:59:30.783Z,4.35
2018-02-14T19:01:57.820Z,4.33
2018-02-14T19:04:24.858Z,4.30
2018-02-14T19:06:51.888Z,4.30
2018-02-14T19:09:18.974Z,4.28
2018-02-14T19:11:45.981Z,4.28
2018-02-14T19:14:13.016Z,4.27
2018-02-14T19:16:40.110Z,4.27
2018-02-14T19:19:07.184Z,4.23
2018-02-14T19:21:34.274Z,4.23
2018-02-14T19:24:01.288Z,4.25
2018-02-14T19:26:28.501Z,4.28
2018-02-14T19:28:55.651Z,4.28
2018-02-14T19:31:22.692Z,4.31
2018-02-14T19:33:49.746Z,4.36
2018-02-14T19:36:16.814Z,4.37
2018-02-14T19:38:43.832Z,4.37
2018-02-14T19:41:10.883Z,4.33
2018-02-14T19:43:37.950Z,4.29
2018-02-14T19:46:04.990Z,4.26
2018-02-14T19:48:31.996Z,4.26
2018-02-14T19:50:59.197Z,4.13
2018-02-14T19:53:26.236Z,4.01
2018-02-14T19:55:53.395Z,4.02
2018-02-14T19:58:20.395Z,4.04
2018-02-14T20:00:47.405Z,3.98
2018-02-14T20:03:14.408Z,4.01
2018-02-14T20:05:41.539Z,4.01
2018-02-14T20:08:09.327Z,4.00
2018-02-14T20:10:36.405Z,3.96
2018-02-14T20:13:03.413Z,3.85
2018-02-14T20:15:30.480Z,3.78
2018-02-14T20:17:57.528Z,3.76
2018-02-14T20:20:24.587Z,3.77
2018-02-14T20:22:51.644Z,3.87
2018-02-14T20:25:18.805Z,3.93
2018-02-14T20:27:45.798Z,3.96
2018-02-14T20:30:13.216Z,3.97
2018-02-14T20:32:40.310Z,4.04
2018-02-14T20:35:07.411Z,4.07
2018-02-14T20:37:34.439Z,4.12
2018-02-14T20:40:01.501Z,4.13
2018-02-14T20:42:28.490Z,4.15
2018-02-14T20:44:55.475Z,4.09
2018-02-14T20:47:22.479Z,3.94
2018-02-14T20:49:49.693Z,3.88
2018-02-14T20:52:16.735Z,3.78
2018-02-14T20:54:43.742Z,3.87
2018-02-14T20:57:10.743Z,3.88
2018-02-14T20:59:37.783Z,3.91
2018-02-14T21:02:04.815Z,4.01
2018-02-14T21:07:05.125Z,4.02
2018-02-14T21:09:32.228Z,4.02
2018-02-14T21:11:59.173Z,4.06
2018-02-14T21:14:26.513Z,4.02
2018-02-14T21:16:53.578Z,3.97
2018-02-14T21:19:20.660Z,3.94
2018-02-14T21:21:47.759Z,3.99
2018-02-14T21:24:14.838Z,4.07
2018-02-14T21:26:41.901Z,4.11
2018-02-14T21:29:08.906Z,4.12
2018-02-14T21:31:35.978Z,4.11
2018-02-14T21:34:03.072Z,4.12
2018-02-14T21:36:30.152Z,3.98
2018-02-14T21:38:57.202Z,4.01
2018-02-14T21:41:24.268Z,4.08
2018-02-14T21:43:51.253Z,3.98
2018-02-14T21:46:18.310Z,3.91
2018-02-14T21:48:45.338Z,3.77
2018-02-14T21:51:12.278Z,3.58
2018-02-14T21:53:39.347Z,3.57
2018-02-14T21:56:06.448Z,3.66
2018-02-14T21:58:33.473Z,3.71
2018-02-14T22:01:00.601Z,3.60
2018-02-14T22:03:27.696Z,3.62
2018-02-14T22:05:54.699Z,3.51
2018-02-14T22:08:21.719Z,3.45
2018-02-14T22:10:48.859Z,3.48
2018-02-14T22:13:16.027Z,3.52
2018-02-14T22:15:43.096Z,3.58
2018-02-14T22:18:10.109Z,3.66
2018-02-14T22:20:37.231Z,3.58
2018-02-14T22:23:04.312Z,3.58
2018-02-14T22:25:31.430Z,3.62
2018-02-14T22:27:58.456Z,3.67
2018-02-14T22:30:25.571Z,3.76
2018-02-14T22:32:52.617Z,3.77
2018-02-14T22:35:19.692Z,3.85
2018-02-14T22:37:46.762Z,3.85
2018-02-14T22:40:13.843Z,3.77
2018-02-14T22:42:40.878Z,3.69
2018-02-14T22:45:07.914Z,3.74
2018-02-14T22:47:34.974Z,3.82
2018-02-14T22:50:01.989Z,3.83
2018-02-14T22:52:29.088Z,3.81
2018-02-14T22:54:56.116Z,3.85
2018-02-14T22:57:23.166Z,3.84
2018-02-14T22:59:50.152Z,3.79
2018-02-14T23:02:17.168Z,3.80
2018-02-14T23:04:44.248Z,3.85
2018-02-14T23:07:11.304Z,3.93
2018-02-14T23:09:38.426Z,3.91
2018-02-14T23:12:05.374Z,3.93
2018-02-14T23:14:32.436Z,3.95
2018-02-14T23:16:59.813Z,4.05
2018-02-14T23:19:26.867Z,4.01
2018-02-14T23:21:53.861Z,3.94
2018-02-14T23:24:20.803Z,3.87
2018-02-14T23:26:47.879Z,3.86
2018-02-14T23:29:14.903Z,3.73
2018-02-14T23:31:41.916Z,3.62
2018-02-14T23:34:08.930Z,3.66
2018-02-14T23:36:35.920Z,3.78
2018-02-14T23:39:02.962Z,3.81
2018-02-14T23:41:30.002Z,3.80
2018-02-14T23:43:57.026Z,3.86
2018-02-14T23:46:24.093Z,3.91
2018-02-14T23:48:51.073Z,3.88
2018-02-14T23:51:18.085Z,3.87
2018-02-14T23:53:45.172Z,3.93
2018-02-14T23:58:45.632Z,4.10
